• Join FlightAware (Why Join?)
  • Login
  • US Flag 
08:37AM EDT


 

Airport Tracker/Info


-or-


 

Live Flight TrackerFlight Track Log ✈ LBQ860 ✈ 11-Jun-2013 ✈ KLZU - KPNS

Flight Track Log - Related Links

Times and Time Zones

All times are in EDT time to prevent confusion due to time zone crossing. See the LBQ860 flight status page for this flight to view local times or setup timezone preferences in your user account.

Time Position Orientation Groundspeed Altitude Reporting Facility
EDT Latitude Longitude Course Direction KTS MPH feet Rate Location/Type
07:53PM 33.9500 -84.0333 205° Southwest 154 177 3,300  Level Atlanta TRACON
07:54PM 33.9333 -84.0833 248° West 155 178 4,800 840 Climbing Atlanta TRACON
07:55PM 33.9000 -84.1333 231° Southwest 193 222 5,000 60 Climbing Atlanta TRACON
07:56PM 33.8667 -84.2000 239° Southwest 217 250 5,000  Level Atlanta TRACON
07:57PM 33.8500 -84.2667 253° West 222 255 5,000  Level Atlanta TRACON
07:58PM 33.8333 -84.3333 253° West 221 254 5,000  Level Atlanta TRACON
07:59PM 33.5519 -84.1601 205° Southwest  Level FlightAware Approximate
07:59PM 33.8000 -84.3833 231° Southwest 242 278 5,000  Level Atlanta TRACON
08:00PM 33.7333 -84.3833 180° South 213 245 6,000 480 Climbing Atlanta TRACON
08:01PM 33.6667 -84.3833 180° South 237 273 6,000  Level Atlanta TRACON
08:02PM 33.6000 -84.4000 192° South 265 305 6,000  Level Atlanta TRACON
08:03PM 33.5333 -84.4000 180° South 246 283 6,000  Level Atlanta TRACON
08:04PM 33.4667 -84.4000 180° South 249 287 6,000  Level Atlanta TRACON
08:05PM 33.4000 -84.4000 180° South 249 287 6,000  Level Atlanta TRACON
08:07PM 33.2864 -84.4264 191° South 246 283 6,000 780 Level Atlanta Center
08:08PM 33.2322 -84.4411 193° South 227 261 8,200 1,500 Climbing Atlanta Center
08:09PM 33.1778 -84.4558 193° South 199 229 9,000 720 Climbing Atlanta Center
08:10PM 33.1131 -84.4728 192° South 224 258 9,700 960 Climbing Atlanta Center
08:11PM 33.0525 -84.4947 197° South 229 264 11,000 600 Climbing Atlanta Center
08:12PM 32.9833 -84.5117 192° South 241 277 11,000 840 Level Atlanta Center
08:13PM 32.9186 -84.5289 193° South 251 289 12,700 1,620 Climbing Atlanta Center
08:14PM 32.8622 -84.5508 198° South 221 254 14,300 1,560 Climbing Atlanta Center
08:15PM 32.8225 -84.5900 220° Southwest 196 226 15,900 840 Climbing Atlanta Center
08:16PM 32.7825 -84.6269 218° Southwest 189 217 16,000  Climbing Atlanta Center
08:17PM 32.7322 -84.6858 225° Southwest 224 258 16,000  Level Atlanta Center
08:18PM 32.6817 -84.7422 223° Southwest 241 277 16,000  Level Atlanta Center
08:19PM 32.6292 -84.8033 224° Southwest 258 297 16,000  Level Atlanta Center
08:20PM 32.5789 -84.8622 225° Southwest 258 297 16,000  Level Atlanta Center
08:21PM 32.5283 -84.9233 226° Southwest 253 291 16,000  Level Atlanta Center
08:22PM 32.4756 -84.9819 223° Southwest 253 291 16,000  Level Atlanta Center
08:23PM 32.4250 -85.0428 225° Southwest 253 291 16,000  Level Atlanta Center
08:24PM 32.3703 -85.1036 223° Southwest 258 297 16,000  Level Atlanta Center
08:26PM 32.2347 -85.2283 218° Southwest 259 298 16,000  Level Jacksonville Center
08:27PM 32.1775 -85.2833 219° Southwest 259 298 16,000  Level Jacksonville Center
08:28PM 32.1200 -85.3381 219° Southwest 264 304 16,000  Level Jacksonville Center
08:29PM 32.0625 -85.3931 219° Southwest 264 304 16,000  Level Jacksonville Center
08:30PM 32.0050 -85.4478 219° Southwest 264 304 16,000  Level Jacksonville Center
08:31PM 31.9475 -85.5000 218° Southwest 264 304 16,000  Level Jacksonville Center
08:32PM 31.8900 -85.5572 220° Southwest 264 304 16,000  Level Jacksonville Center
08:33PM 31.8344 -85.6167 222° Southwest 264 304 16,000  Level Jacksonville Center
08:34PM 31.7811 -85.6761 223° Southwest 264 304 16,000  Level Jacksonville Center
08:35PM 31.7358 -85.7333 227° Southwest 264 304 16,000  Level Jacksonville Center
08:36PM 31.6844 -85.7953 226° Southwest 269 310 16,000  Level Jacksonville Center
08:37PM 31.6308 -85.8572 225° Southwest 269 310 16,000  Level Jacksonville Center
08:38PM 31.5792 -85.9189 225° Southwest 269 310 16,000  Level Jacksonville Center
08:39PM 31.5256 -85.9781 223° Southwest 269 310 16,000  Level Jacksonville Center
08:40PM 31.4761 -86.0447 229° Southwest 274 315 16,000  Level Jacksonville Center
08:41PM 31.4367 -86.1139 236° Southwest 274 315 16,000  Level Jacksonville Center
08:42PM 31.3972 -86.1903 239° Southwest 274 315 16,000 -240 Level Jacksonville Center
08:43PM 31.3575 -86.2669 239° Southwest 274 315 15,600 -660 Descending Jacksonville Center
08:44PM 31.3158 -86.3456 238° Southwest 279 321 14,700 -840 Descending Jacksonville Center
08:45PM 31.2739 -86.4267 239° Southwest 286 329 14,000 -360 Descending Jacksonville Center
08:46PM 31.2322 -86.5003 237° Southwest 286 329 14,000  Level Jacksonville Center
08:47PM 31.1925 -86.5694 236° Southwest 279 321 14,000 -120 Level Jacksonville Center
08:48PM 31.1569 -86.6408 240° Southwest 264 304 13,800 -600 Descending Jacksonville Center
08:49PM 31.1089 -86.7189 234° Southwest 274 315 12,900 -840 Descending Jacksonville Center
08:50PM 31.0647 -86.7947 236° Southwest 279 321 12,000 -960 Descending Jacksonville Center
08:51PM 31.0203 -86.8800 239° Southwest 279 321 11,000 -960 Descending Jacksonville Center
08:52PM 30.9783 -86.9583 238° Southwest 284 327 10,100 -900 Descending Jacksonville Center
08:53PM 30.9061 -86.9964 204° Southwest 280 322 9,300 -1,200 Descending Jacksonville Center
08:54PM 30.8275 -87.0317 201° Southwest 282 325 7,800 -1,200 Descending Jacksonville Center
08:55PM 30.7581 -87.0528 195° South 283 326 7,000 -1,200 Descending Jacksonville Center
08:56PM 30.6881 -87.0836 201° Southwest 283 326 5,500 -1,680 Descending Jacksonville Center
08:57PM 30.6142 -87.1117 198° South 283 326 3,700 -1,920 Descending Jacksonville Center
08:58PM 30.5339 -87.1369 195° South 273 314 1,600 -1,320 Descending Jacksonville Center
08:59PM 30.4836 -87.1467 189° South 174 200 1,200 -480 Descending Jacksonville Center
09:01PM 30.4667 -87.1833 168° South  Level FlightAware Approximate
09:08PM 30.4734 -87.1866 168° South  Level Estimated
09:09PM 30.4734 -87.1866 168° South  Level Estimated